createdAt,value
2017-12-05T00:00:40.323Z,102376.62
2017-12-05T00:03:06.075Z,102373.56
2017-12-05T00:05:31.877Z,102382.34
2017-12-05T00:07:57.637Z,102380.22
2017-12-05T00:10:23.399Z,102377.95
2017-12-05T00:12:49.170Z,102382.77
2017-12-05T00:15:14.919Z,102383.64
2017-12-05T00:17:40.697Z,102378.80
2017-12-05T00:20:06.451Z,102377.90
2017-12-05T00:22:32.216Z,102388.86
2017-12-05T00:24:57.972Z,102385.36
2017-12-05T00:27:23.744Z,102388.88
2017-12-05T00:29:49.511Z,102381.44
2017-12-05T00:32:15.284Z,102383.22
2017-12-05T00:34:41.049Z,102391.09
2017-12-05T00:37:06.804Z,102383.19
2017-12-05T00:39:32.580Z,102382.80
2017-12-05T00:41:58.336Z,102386.72
2017-12-05T00:44:24.103Z,102391.55
2017-12-05T00:46:49.862Z,102388.87
2017-12-05T00:49:15.635Z,102392.39
2017-12-05T00:51:41.391Z,102399.86
2017-12-05T00:54:07.155Z,102396.77
2017-12-05T00:56:32.908Z,102394.16
2017-12-05T00:58:58.671Z,102391.94
2017-12-05T01:01:24.431Z,102386.68
2017-12-05T01:03:50.212Z,102393.30
2017-12-05T01:06:15.976Z,102393.26
2017-12-05T01:08:41.744Z,102391.94
2017-12-05T01:11:07.525Z,102380.53
2017-12-05T01:13:33.275Z,102380.06
2017-12-05T01:15:59.043Z,102388.86
2017-12-05T01:18:24.795Z,102383.15
2017-12-05T01:20:50.555Z,102387.11
2017-12-05T01:23:16.319Z,102381.89
2017-12-05T01:25:42.090Z,102376.63
2017-12-05T01:28:07.844Z,102381.44
2017-12-05T01:30:33.604Z,102382.77
2017-12-05T01:32:59.372Z,102388.89
2017-12-05T01:35:25.139Z,102386.30
2017-12-05T01:37:50.903Z,102390.70
2017-12-05T01:40:16.676Z,102402.50
2017-12-05T01:42:42.431Z,102400.33
2017-12-05T01:45:08.194Z,102397.23
2017-12-05T01:47:33.964Z,102400.31
2017-12-05T01:49:59.725Z,102399.00
2017-12-05T01:52:25.475Z,102400.75
2017-12-05T01:54:51.263Z,102404.28
2017-12-05T01:57:17.019Z,102402.53
2017-12-05T01:59:42.794Z,102402.06
2017-12-05T02:02:08.551Z,102398.11
2017-12-05T02:04:34.314Z,102408.66
2017-12-05T02:07:00.076Z,102402.05
2017-12-05T02:09:25.846Z,102402.51
2017-12-05T02:11:51.616Z,102397.23
2017-12-05T02:14:17.380Z,102402.55
2017-12-05T02:16:43.153Z,102395.94
2017-12-05T02:19:08.924Z,102401.17
2017-12-05T02:21:34.697Z,102400.33
2017-12-05T02:24:00.446Z,102404.70
2017-12-05T02:26:26.196Z,102397.25
2017-12-05T02:28:51.967Z,102391.97
2017-12-05T02:31:17.714Z,102391.15
2017-12-05T02:33:43.474Z,102395.03
2017-12-05T02:36:09.273Z,102398.55
2017-12-05T02:38:35.026Z,102396.81
2017-12-05T02:41:09.009Z,102394.15
2017-12-05T02:43:34.773Z,102384.98
2017-12-05T02:46:00.544Z,102383.20
2017-12-05T02:48:26.311Z,102386.23
2017-12-05T02:50:52.065Z,102385.81
2017-12-05T02:53:17.829Z,102400.30
2017-12-05T02:55:43.599Z,102390.68
2017-12-05T02:58:09.356Z,102395.92
2017-12-05T03:00:35.113Z,102387.16
2017-12-05T03:03:00.852Z,102382.33
2017-12-05T03:05:26.622Z,102383.66
2017-12-05T03:07:52.376Z,102380.57
2017-12-05T03:10:18.139Z,102381.47
2017-12-05T03:12:43.895Z,102388.86
2017-12-05T03:15:09.664Z,102388.84
2017-12-05T03:17:35.431Z,102393.33
2017-12-05T03:20:01.201Z,102387.97
2017-12-05T03:22:26.962Z,102386.68
2017-12-05T03:24:52.723Z,102392.80
2017-12-05T03:27:18.476Z,102400.69
2017-12-05T03:29:44.253Z,102391.08
2017-12-05T03:32:10.000Z,102400.68
2017-12-05T03:34:35.764Z,102390.58
2017-12-05T03:37:01.517Z,102397.59
2017-12-05T03:39:27.282Z,102398.47
2017-12-05T03:41:53.039Z,102395.03
2017-12-05T03:44:18.797Z,102393.68
2017-12-05T03:46:44.583Z,102395.44
2017-12-05T03:49:10.346Z,102395.42
2017-12-05T03:51:36.116Z,102396.37
2017-12-05T03:54:01.885Z,102388.91
2017-12-05T03:56:27.647Z,102383.64
2017-12-05T03:58:53.402Z,102385.41
2017-12-05T04:01:19.177Z,102383.59
2017-12-05T04:03:44.930Z,102381.44
2017-12-05T04:06:10.704Z,102373.97
2017-12-05T04:08:36.455Z,102385.82
2017-12-05T04:11:02.232Z,102384.89
2017-12-05T04:13:27.984Z,102380.97
2017-12-05T04:15:53.752Z,102392.42
2017-12-05T04:18:19.505Z,102391.05
2017-12-05T04:20:45.264Z,102387.96
2017-12-05T04:23:11.032Z,102391.08
2017-12-05T04:25:36.783Z,102390.16
2017-12-05T04:28:02.565Z,102395.01
2017-12-05T04:30:28.324Z,102398.03
2017-12-05T04:32:54.103Z,102400.27
2017-12-05T04:35:19.876Z,102395.02
2017-12-05T04:37:45.669Z,102391.05
2017-12-05T04:40:11.442Z,102397.17
2017-12-05T04:42:37.219Z,102398.91
2017-12-05T04:45:02.977Z,102399.80
2017-12-05T04:47:28.773Z,102399.78
2017-12-05T04:49:54.531Z,102391.84
2017-12-05T04:52:20.343Z,102400.20
2017-12-05T04:54:46.123Z,102401.98
2017-12-05T04:57:11.903Z,102398.01
2017-12-05T04:59:37.688Z,102394.50
2017-12-05T05:02:03.471Z,102392.71
2017-12-05T05:04:29.259Z,102389.59
2017-12-05T05:06:55.034Z,102397.55
2017-12-05T05:09:20.811Z,102405.93
2017-12-05T05:11:46.571Z,102406.33
2017-12-05T05:14:12.344Z,102390.05
2017-12-05T05:16:38.112Z,102406.74
2017-12-05T05:19:03.911Z,102397.95
2017-12-05T05:21:29.679Z,102403.70
2017-12-05T05:23:55.469Z,102404.56
2017-12-05T05:26:21.232Z,102400.19
2017-12-05T05:28:47.016Z,102403.72
2017-12-05T05:31:12.779Z,102409.45
2017-12-05T05:33:38.557Z,102403.24
2017-12-05T05:36:04.323Z,102415.22
2017-12-05T05:38:30.078Z,102408.12
2017-12-05T05:40:55.867Z,102406.42
2017-12-05T05:43:21.646Z,102406.89
2017-12-05T05:45:47.424Z,102402.45
2017-12-05T05:48:13.201Z,102404.22
2017-12-05T05:50:38.964Z,102401.62
2017-12-05T05:53:04.731Z,102408.19
2017-12-05T05:55:30.502Z,102396.30
2017-12-05T05:57:56.278Z,102405.06
2017-12-05T06:00:22.053Z,102403.28
2017-12-05T06:02:47.816Z,102406.73
2017-12-05T06:05:13.578Z,102405.03
2017-12-05T06:07:39.354Z,102403.64
2017-12-05T06:10:05.119Z,102411.12
2017-12-05T06:12:30.870Z,102412.02
2017-12-05T06:14:56.640Z,102415.59
2017-12-05T06:17:22.417Z,102411.58
2017-12-05T06:19:48.184Z,102414.23
2017-12-05T06:22:13.945Z,102417.77
2017-12-05T06:24:39.739Z,102422.15
2017-12-05T06:27:05.497Z,102419.08
2017-12-05T06:29:31.251Z,102422.63
2017-12-05T06:31:57.023Z,102423.97
2017-12-05T06:34:22.793Z,102424.80
2017-12-05T06:36:48.567Z,102424.73
2017-12-05T06:39:14.315Z,102427.88
2017-12-05T06:41:40.071Z,102427.00
2017-12-05T06:44:05.828Z,102437.00
2017-12-05T06:46:31.595Z,102431.36
2017-12-05T06:48:57.360Z,102425.22
2017-12-05T06:51:23.123Z,102440.09
2017-12-05T06:53:48.887Z,102439.20
2017-12-05T06:56:14.655Z,102438.73
2017-12-05T06:58:40.416Z,102437.80
2017-12-05T07:01:06.211Z,102448.37
2017-12-05T07:03:31.980Z,102447.49
2017-12-05T07:05:57.739Z,102440.54
2017-12-05T07:08:23.506Z,102440.48
2017-12-05T07:10:49.254Z,102435.60
2017-12-05T07:13:15.014Z,102442.20
2017-12-05T07:15:40.788Z,102442.63
2017-12-05T07:18:06.551Z,102447.03
2017-12-05T07:20:32.302Z,102444.86
2017-12-05T07:22:58.084Z,102448.87
2017-12-05T07:25:23.848Z,102443.94
2017-12-05T07:27:55.692Z,102444.00
2017-12-05T07:30:21.455Z,102454.60
2017-12-05T07:32:47.231Z,102455.83
2017-12-05T07:35:12.986Z,102455.88
2017-12-05T07:37:38.776Z,102457.13
2017-12-05T07:40:04.536Z,102450.98
2017-12-05T07:42:30.311Z,102451.48
2017-12-05T07:44:56.077Z,102453.98
2017-12-05T07:47:21.866Z,102456.63
2017-12-05T07:49:47.642Z,102465.91
2017-12-05T07:52:13.436Z,102464.08
2017-12-05T07:54:39.199Z,102463.20
2017-12-05T07:57:04.971Z,102454.50
2017-12-05T07:59:30.748Z,102458.47
2017-12-05T08:01:56.557Z,102457.92
2017-12-05T08:04:22.344Z,102463.58
2017-12-05T08:06:48.119Z,102455.75
2017-12-05T08:09:13.906Z,102467.55
2017-12-05T08:11:39.689Z,102463.16
2017-12-05T08:14:05.463Z,102462.21
2017-12-05T08:16:31.242Z,102467.43
2017-12-05T08:18:57.024Z,102463.00
2017-12-05T08:21:22.816Z,102464.47
2017-12-05T08:23:48.609Z,102462.77
2017-12-05T08:26:14.368Z,102464.94
2017-12-05T08:28:40.155Z,102463.72
2017-12-05T08:31:06.123Z,102470.77
2017-12-05T08:33:32.014Z,102466.42
2017-12-05T08:35:57.797Z,102472.16
2017-12-05T08:38:23.687Z,102471.28
2017-12-05T08:40:49.468Z,102475.70
2017-12-05T08:43:15.247Z,102480.14
2017-12-05T08:45:41.088Z,102478.77
2017-12-05T08:48:06.872Z,102471.30
2017-12-05T08:50:32.680Z,102477.55
2017-12-05T08:52:58.448Z,102481.97
2017-12-05T08:55:24.215Z,102482.09
2017-12-05T08:57:49.972Z,102487.71
2017-12-05T09:00:15.763Z,102488.16
2017-12-05T09:02:41.526Z,102485.09
2017-12-05T09:05:07.325Z,102496.16
2017-12-05T09:07:33.087Z,102492.28
2017-12-05T09:09:58.863Z,102491.25
2017-12-05T09:12:24.641Z,102485.11
2017-12-05T09:14:50.422Z,102489.00
2017-12-05T09:17:16.178Z,102490.36
2017-12-05T09:19:41.955Z,102492.52
2017-12-05T09:22:07.723Z,102492.03
2017-12-05T09:24:33.488Z,102496.84
2017-12-05T09:26:59.297Z,102497.78
2017-12-05T09:29:25.079Z,102492.53
2017-12-05T09:31:50.852Z,102485.55
2017-12-05T09:34:16.616Z,102484.25
2017-12-05T09:36:42.387Z,102483.02
2017-12-05T09:39:08.143Z,102491.01
2017-12-05T09:41:33.927Z,102478.71
2017-12-05T09:43:59.696Z,102482.73
2017-12-05T09:46:25.492Z,102483.61
2017-12-05T09:48:51.251Z,102480.54
2017-12-05T09:51:17.032Z,102483.16
2017-12-05T09:53:42.808Z,102483.25
2017-12-05T09:56:08.600Z,102485.91
2017-12-05T09:58:34.376Z,102485.05
2017-12-05T10:01:00.163Z,102489.03
2017-12-05T10:03:25.937Z,102483.75
2017-12-05T10:05:51.759Z,102479.83
2017-12-05T10:08:17.527Z,102471.50
2017-12-05T10:10:43.295Z,102476.77
2017-12-05T10:13:09.075Z,102466.25
2017-12-05T10:15:34.841Z,102461.97
2017-12-05T10:18:00.627Z,102462.05
2017-12-05T10:20:26.400Z,102466.03
2017-12-05T10:22:52.191Z,102465.19
2017-12-05T10:25:17.965Z,102454.14
2017-12-05T10:27:43.732Z,102445.73
2017-12-05T10:30:09.491Z,102446.14
2017-12-05T10:32:35.276Z,102442.17
2017-12-05T10:35:01.064Z,102447.00
2017-12-05T10:37:26.841Z,102446.59
2017-12-05T10:39:52.622Z,102440.41
2017-12-05T10:42:18.379Z,102444.81
2017-12-05T10:44:44.169Z,102440.43
2017-12-05T10:47:09.950Z,102437.84
2017-12-05T10:49:35.715Z,102430.39
2017-12-05T10:52:01.489Z,102431.72
2017-12-05T10:54:27.270Z,102434.38
2017-12-05T10:56:53.080Z,102441.83
2017-12-05T10:59:18.851Z,102448.02
2017-12-05T11:01:44.624Z,102449.79
2017-12-05T11:04:10.390Z,102439.69
2017-12-05T11:06:36.145Z,102437.02
2017-12-05T11:09:01.961Z,102435.31
2017-12-05T11:11:27.744Z,102441.89
2017-12-05T11:13:53.540Z,102444.55
2017-12-05T11:16:19.315Z,102431.33
2017-12-05T11:18:45.112Z,102446.33
2017-12-05T11:21:10.896Z,102434.88
2017-12-05T11:23:36.664Z,102445.44
2017-12-05T11:26:02.455Z,102446.81
2017-12-05T11:28:28.235Z,102440.66
2017-12-05T11:30:54.033Z,102437.09
2017-12-05T11:33:19.792Z,102438.00
2017-12-05T11:35:45.572Z,102440.70
2017-12-05T11:38:11.331Z,102442.00
2017-12-05T11:40:37.116Z,102438.92
2017-12-05T11:43:02.907Z,102438.03
2017-12-05T11:45:28.692Z,102436.71
2017-12-05T11:47:54.454Z,102434.09
2017-12-05T11:50:20.215Z,102431.46
2017-12-05T11:52:45.995Z,102436.28
2017-12-05T11:55:11.760Z,102424.41
2017-12-05T11:57:37.535Z,102425.71
2017-12-05T12:00:03.359Z,102422.22
2017-12-05T12:02:29.081Z,102416.94
2017-12-05T12:04:54.841Z,102417.38
2017-12-05T12:07:20.621Z,102412.97
2017-12-05T12:09:46.377Z,102405.89
2017-12-05T12:12:12.152Z,102403.25
2017-12-05T12:14:37.916Z,102397.52
2017-12-05T12:17:03.667Z,102398.43
2017-12-05T12:19:29.546Z,102400.15
2017-12-05T12:21:55.304Z,102400.15
2017-12-05T12:24:21.071Z,102399.73
2017-12-05T12:26:46.851Z,102397.51
2017-12-05T12:29:12.610Z,102396.17
2017-12-05T12:31:38.378Z,102400.54
2017-12-05T12:34:04.139Z,102392.61
2017-12-05T12:36:29.920Z,102398.80
2017-12-05T12:38:55.678Z,102399.69
2017-12-05T12:41:21.471Z,102392.17
2017-12-05T12:43:47.228Z,102395.70
2017-12-05T12:46:13.007Z,102396.16
2017-12-05T12:48:38.763Z,102395.70
2017-12-05T12:51:04.536Z,102397.91
2017-12-05T12:53:30.296Z,102389.98
2017-12-05T12:55:56.059Z,102391.77
2017-12-05T12:58:21.849Z,102394.38
2017-12-05T13:00:47.622Z,102393.90
2017-12-05T13:03:13.390Z,102383.34
2017-12-05T13:05:39.130Z,102385.98
2017-12-05T13:08:04.904Z,102391.28
2017-12-05T13:10:30.655Z,102385.53
2017-12-05T13:12:56.429Z,102389.07
2017-12-05T13:15:22.194Z,102378.52
2017-12-05T13:17:47.964Z,102382.94
2017-12-05T13:20:13.730Z,102380.27
2017-12-05T13:22:39.539Z,102386.88
2017-12-05T13:25:05.313Z,102387.77
2017-12-05T13:27:31.087Z,102381.16
2017-12-05T13:29:56.863Z,102386.44
2017-12-05T13:32:22.628Z,102375.02
2017-12-05T13:34:48.397Z,102379.84
2017-12-05T13:37:14.201Z,102379.40
2017-12-05T13:39:39.969Z,102380.27
2017-12-05T13:42:05.741Z,102372.37
2017-12-05T13:44:31.516Z,102373.68
2017-12-05T13:46:57.274Z,102374.53
2017-12-05T13:49:23.061Z,102367.09
2017-12-05T13:51:48.837Z,102371.91
2017-12-05T13:54:14.611Z,102370.58
2017-12-05T13:56:40.395Z,102365.75
2017-12-05T13:59:06.160Z,102361.34
2017-12-05T14:01:31.911Z,102358.24
2017-12-05T14:03:57.702Z,102355.63
2017-12-05T14:06:23.467Z,102352.09
2017-12-05T14:08:49.261Z,102354.31
2017-12-05T14:11:15.049Z,102353.41
2017-12-05T14:13:40.820Z,102351.65
2017-12-05T14:16:06.644Z,102350.33
2017-12-05T14:18:32.423Z,102352.95
2017-12-05T14:20:58.208Z,102356.88
2017-12-05T14:23:23.975Z,102347.66
2017-12-05T14:25:49.739Z,102342.39
2017-12-05T14:28:15.483Z,102349.86
2017-12-05T14:30:41.269Z,102353.83
2017-12-05T14:33:07.019Z,102340.62
2017-12-05T14:35:32.799Z,102340.61
2017-12-05T14:37:58.540Z,102349.88
2017-12-05T14:40:24.312Z,102352.48
2017-12-05T14:42:50.071Z,102355.55
2017-12-05T14:45:15.844Z,102346.30
2017-12-05T14:47:41.618Z,102355.09
2017-12-05T14:50:07.382Z,102345.82
2017-12-05T14:52:33.164Z,102355.06
2017-12-05T14:54:58.921Z,102352.89
2017-12-05T14:57:24.704Z,102350.69
2017-12-05T14:59:50.468Z,102344.97
2017-12-05T15:02:16.245Z,102336.58
2017-12-05T15:04:42.004Z,102342.29
2017-12-05T15:07:07.787Z,102346.67
2017-12-05T15:09:33.547Z,102345.80
2017-12-05T15:11:59.323Z,102342.73
2017-12-05T15:14:25.092Z,102347.11
2017-12-05T15:16:50.865Z,102355.94
2017-12-05T15:19:16.628Z,102350.20
2017-12-05T15:21:42.392Z,102357.67
2017-12-05T15:24:08.169Z,102348.86
2017-12-05T15:26:33.960Z,102348.82
2017-12-05T15:28:59.709Z,102348.87
2017-12-05T15:31:25.492Z,102354.59
2017-12-05T15:33:51.288Z,102359.42
2017-12-05T15:36:17.052Z,102351.07
2017-12-05T15:38:42.842Z,102351.95
2017-12-05T15:41:08.612Z,102355.47
2017-12-05T15:43:34.388Z,102353.73
2017-12-05T15:46:00.148Z,102355.48
2017-12-05T15:48:25.939Z,102357.23
2017-12-05T15:50:51.715Z,102362.12
2017-12-05T15:53:17.487Z,102366.05
2017-12-05T15:55:43.251Z,102358.56
2017-12-05T15:58:09.023Z,102355.95
2017-12-05T16:00:34.798Z,102354.14
2017-12-05T16:03:00.571Z,102356.38
2017-12-05T16:05:26.320Z,102363.39
2017-12-05T16:07:52.096Z,102361.60
2017-12-05T16:10:17.856Z,102359.77
2017-12-05T16:12:43.639Z,102365.91
2017-12-05T16:15:09.401Z,102363.73
2017-12-05T16:17:35.211Z,102361.73
2017-12-05T16:20:00.975Z,102366.58
2017-12-05T16:22:26.751Z,102363.47
2017-12-05T16:24:52.557Z,102368.75
2017-12-05T16:27:18.376Z,102364.28
2017-12-05T16:29:44.132Z,102358.59
2017-12-05T16:32:09.903Z,102364.82
2017-12-05T16:34:35.679Z,102368.11
2017-12-05T16:37:01.443Z,102362.40
2017-12-05T16:39:27.236Z,102360.61
2017-12-05T16:41:53.004Z,102360.17
2017-12-05T16:44:18.787Z,102357.95
2017-12-05T16:46:44.550Z,102361.94
2017-12-05T16:49:10.318Z,102360.55
2017-12-05T16:51:36.067Z,102359.70
2017-12-05T16:54:01.854Z,102362.75
2017-12-05T16:56:27.620Z,102357.50
2017-12-05T16:58:53.412Z,102357.05
2017-12-05T17:01:19.179Z,102362.78
2017-12-05T17:03:44.971Z,102354.45
2017-12-05T17:06:10.738Z,102361.92
2017-12-05T17:08:36.508Z,102361.05
2017-12-05T17:11:02.284Z,102357.11
2017-12-05T17:13:28.047Z,102364.14
2017-12-05T17:15:53.809Z,102354.45
2017-12-05T17:18:19.583Z,102364.15
2017-12-05T17:20:45.359Z,102349.63
2017-12-05T17:23:11.120Z,102354.88
2017-12-05T17:25:36.921Z,102360.16
2017-12-05T17:28:02.692Z,102359.72
2017-12-05T17:30:28.476Z,102361.06
2017-12-05T17:32:54.255Z,102361.96
2017-12-05T17:35:20.041Z,102352.70
2017-12-05T17:37:45.803Z,102366.78
2017-12-05T17:40:11.571Z,102360.59
2017-12-05T17:42:37.341Z,102364.11
2017-12-05T17:45:03.119Z,102350.19
2017-12-05T18:36:06.244Z,102313.89
2017-12-05T18:38:32.016Z,102321.65
2017-12-05T18:40:57.780Z,102319.39
2017-12-05T18:43:23.564Z,102319.75
2017-12-05T18:45:49.354Z,102320.68
2017-12-05T18:48:15.129Z,102323.72
2017-12-05T18:50:40.884Z,102321.56
2017-12-05T18:53:06.673Z,102319.40
2017-12-05T18:55:32.431Z,102311.00
2017-12-05T18:57:58.240Z,102317.09
2017-12-05T19:00:24.024Z,102310.55
2017-12-05T19:02:49.800Z,102315.83
2017-12-05T19:05:15.614Z,102322.86
2017-12-05T19:07:41.393Z,102313.16
2017-12-05T19:10:07.175Z,102318.44
2017-12-05T19:12:32.973Z,102309.18
2017-12-05T19:14:58.733Z,102317.12
2017-12-05T19:17:24.507Z,102314.94
2017-12-05T19:19:50.277Z,102309.61
2017-12-05T19:22:16.064Z,102298.21
2017-12-05T19:24:41.836Z,102300.86
2017-12-05T19:27:07.622Z,102299.97
2017-12-05T19:29:33.375Z,102304.87
2017-12-05T19:31:59.139Z,102303.94
2017-12-05T19:34:24.918Z,102293.81
2017-12-05T19:36:50.675Z,102292.94
2017-12-05T19:39:16.452Z,102292.09
2017-12-05T19:41:42.232Z,102306.14
2017-12-05T19:44:08.000Z,102299.98
2017-12-05T19:46:33.766Z,102294.70
2017-12-05T19:48:59.541Z,102299.55
2017-12-05T19:51:25.305Z,102292.94
2017-12-05T19:53:51.093Z,102296.03
2017-12-05T19:56:16.877Z,102310.11
2017-12-05T19:58:42.670Z,102315.81
2017-12-05T20:01:08.436Z,102310.98
2017-12-05T20:03:34.236Z,102312.73
2017-12-05T20:06:00.005Z,102308.31
2017-12-05T20:08:25.763Z,102310.08
2017-12-05T20:10:51.535Z,102315.34
2017-12-05T20:13:17.301Z,102309.61
2017-12-05T20:15:43.080Z,102306.55
2017-12-05T20:18:08.849Z,102312.72
2017-12-05T20:20:34.611Z,102307.87
2017-12-05T20:23:00.372Z,102316.64
2017-12-05T20:25:26.161Z,102316.20
2017-12-05T20:27:51.932Z,102316.19
2017-12-05T20:30:17.700Z,102308.25
2017-12-05T20:32:43.468Z,102316.18
2017-12-05T20:35:09.604Z,102314.87
2017-12-05T20:37:35.404Z,102318.83
2017-12-05T20:40:01.195Z,102312.61
2017-12-05T20:42:26.955Z,102324.02
2017-12-05T20:44:52.895Z,102318.27
2017-12-05T20:47:18.670Z,102318.25
2017-12-05T20:49:44.436Z,102320.81
2017-12-05T20:52:10.184Z,102313.73
2017-12-05T20:54:35.941Z,102321.14
2017-12-05T20:57:01.712Z,102323.34
2017-12-05T20:59:27.476Z,102324.22
2017-12-05T21:01:53.236Z,102328.56
2017-12-05T21:04:18.991Z,102325.96
2017-12-05T21:06:44.779Z,102325.02
2017-12-05T21:09:10.531Z,102314.02
2017-12-05T21:11:36.304Z,102320.17
2017-12-05T21:14:02.074Z,102314.47
2017-12-05T21:16:27.839Z,102311.92
2017-12-05T21:18:53.601Z,102306.18
2017-12-05T21:21:19.363Z,102295.17
2017-12-05T21:23:45.111Z,102296.45
2017-12-05T21:26:10.891Z,102293.84
2017-12-05T21:28:36.631Z,102297.82
2017-12-05T21:31:02.390Z,102296.92
2017-12-05T21:33:28.159Z,102298.27
2017-12-05T21:35:53.928Z,102294.70
2017-12-05T21:38:19.684Z,102304.39
2017-12-05T21:40:45.435Z,102298.69
2017-12-05T21:43:11.201Z,102298.68
2017-12-05T21:45:36.951Z,102294.76
2017-12-05T21:48:02.727Z,102297.34
2017-12-05T21:50:28.483Z,102296.02
2017-12-05T21:52:54.255Z,102310.09
2017-12-05T21:55:20.403Z,102298.68
2017-12-05T21:57:46.715Z,102303.89
2017-12-05T22:00:12.969Z,102305.56
2017-12-05T22:02:38.978Z,102298.56
2017-12-05T22:05:04.931Z,102296.84
2017-12-05T22:07:31.050Z,102286.23
2017-12-05T22:09:56.824Z,102299.50
2017-12-05T22:12:22.786Z,102295.92
2017-12-05T22:14:48.542Z,102287.20
2017-12-05T22:17:14.318Z,102290.28
2017-12-05T22:19:40.062Z,102291.17
2017-12-05T22:22:05.824Z,102284.14
2017-12-05T22:24:31.580Z,102286.36
2017-12-05T22:26:57.353Z,102285.05
2017-12-05T22:29:23.228Z,102285.46
2017-12-05T22:31:48.993Z,102290.28
2017-12-05T22:34:14.751Z,102291.63
2017-12-05T22:36:40.508Z,102296.05
2017-12-05T22:39:06.271Z,102290.80
2017-12-05T22:41:32.111Z,102283.31
2017-12-05T22:43:57.888Z,102290.35
2017-12-05T22:46:23.648Z,102286.84
2017-12-05T22:48:49.412Z,102286.44
2017-12-05T22:51:15.164Z,102290.38
2017-12-05T22:53:40.961Z,102293.44
2017-12-05T22:56:06.695Z,102289.48
2017-12-05T22:58:32.557Z,102278.91
2017-12-05T23:00:58.353Z,102278.98
2017-12-05T23:03:24.140Z,102286.88
2017-12-05T23:05:49.908Z,102272.82
2017-12-05T23:08:15.826Z,102282.52
2017-12-05T23:10:41.611Z,102272.83
2017-12-05T23:13:07.367Z,102278.94
2017-12-05T23:15:33.136Z,102266.27
2017-12-05T23:17:58.959Z,102269.81
2017-12-05T23:20:24.715Z,102271.52
2017-12-05T23:22:50.470Z,102265.43
2017-12-05T23:25:16.249Z,102258.80
2017-12-05T23:27:42.008Z,102276.80
2017-12-05T23:30:07.782Z,102293.14
2017-12-05T23:32:33.534Z,102280.38
2017-12-05T23:34:59.300Z,102281.67
2017-12-05T23:37:25.048Z,102283.87
2017-12-05T23:39:50.811Z,102279.90
2017-12-05T23:42:16.563Z,102284.27
2017-12-05T23:44:42.323Z,102283.83
2017-12-05T23:47:08.084Z,102274.66
2017-12-05T23:49:33.855Z,102272.85
2017-12-05T23:51:59.616Z,102272.86
2017-12-05T23:54:25.395Z,102267.16
2017-12-05T23:56:51.144Z,102265.90
2017-12-05T23:59:16.903Z,102255.74
